createdAt,value
2019-03-25T00:00:39.705Z,1016.40
2019-03-25T00:01:39.688Z,1016.38
2019-03-25T00:02:39.682Z,1016.37
2019-03-25T00:03:39.687Z,1016.38
2019-03-25T00:04:39.666Z,1016.37
2019-03-25T00:05:39.652Z,1016.32
2019-03-25T00:06:39.664Z,1016.32
2019-03-25T00:07:39.626Z,1016.32
2019-03-25T00:08:39.639Z,1016.27
2019-03-25T00:09:39.615Z,1016.27
2019-03-25T00:10:39.599Z,1016.27
2019-03-25T00:11:39.582Z,1016.27
2019-03-25T00:12:39.576Z,1016.26
2019-03-25T00:13:39.580Z,1016.24
2019-03-25T00:14:39.641Z,1016.22
2019-03-25T00:15:39.541Z,1016.18
2019-03-25T00:16:39.528Z,1016.21
2019-03-25T00:17:39.526Z,1016.19
2019-03-25T00:18:39.524Z,1016.18
2019-03-25T00:19:39.501Z,1016.23
2019-03-25T00:20:39.490Z,1016.19
2019-03-25T00:21:39.475Z,1016.17
2019-03-25T00:22:39.462Z,1016.15
2019-03-25T00:23:39.463Z,1016.11
2019-03-25T00:24:39.442Z,1016.09
2019-03-25T00:25:39.523Z,1016.09
2019-03-25T00:26:39.419Z,1016.08
2019-03-25T00:27:39.417Z,1016.07
2019-03-25T00:28:39.414Z,1016.06
2019-03-25T00:29:39.393Z,1016.02
2019-03-25T00:30:39.377Z,1016.05
2019-03-25T00:31:39.396Z,1016.03
2019-03-25T00:32:39.352Z,1016.01
2019-03-25T00:33:39.386Z,1016.04
2019-03-25T00:34:39.354Z,1016.04
2019-03-25T00:35:39.332Z,1016.04
2019-03-25T00:36:39.304Z,1016.02
2019-03-25T00:37:39.296Z,1016.03
2019-03-25T00:38:39.299Z,1016.00
2019-03-25T00:39:39.275Z,1015.98
2019-03-25T00:40:39.261Z,1015.99
2019-03-25T00:41:39.250Z,1015.98
2019-03-25T00:42:39.261Z,1015.97
2019-03-25T00:43:39.260Z,1015.95
2019-03-25T00:44:39.223Z,1015.89
2019-03-25T00:45:39.206Z,1015.93
2019-03-25T00:46:39.292Z,1015.83
2019-03-25T00:47:39.187Z,1015.83
2019-03-25T00:48:39.203Z,1015.79
2019-03-25T00:49:39.173Z,1015.81
2019-03-25T00:50:39.161Z,1015.79
2019-03-25T00:51:39.142Z,1015.79
2019-03-25T00:52:39.138Z,1015.73
2019-03-25T00:53:39.133Z,1015.73
2019-03-25T00:54:49.618Z,1015.72
2019-03-25T00:55:39.100Z,1015.75
2019-03-25T00:56:39.086Z,1015.74
2019-03-25T00:57:39.098Z,1015.69
2019-03-25T00:58:39.082Z,1015.69
2019-03-25T00:59:39.055Z,1015.72
2019-03-25T01:00:39.673Z,1015.75
2019-03-25T01:01:39.030Z,1015.71
2019-03-25T01:02:39.019Z,1015.77
2019-03-25T01:03:39.015Z,1015.72
2019-03-25T01:04:38.996Z,1015.67
2019-03-25T01:05:38.988Z,1015.66
2019-03-25T01:06:38.977Z,1015.62
2019-03-25T01:07:38.965Z,1015.63
2019-03-25T01:08:38.959Z,1015.59
2019-03-25T01:09:38.967Z,1015.55
2019-03-25T01:10:38.935Z,1015.58
2019-03-25T01:11:48.738Z,1015.52
2019-03-25T01:12:38.908Z,1015.51
2019-03-25T01:13:38.898Z,1015.50
2019-03-25T01:14:38.902Z,1015.53
2019-03-25T01:15:38.892Z,1015.52
2019-03-25T01:16:38.869Z,1015.51
2019-03-25T01:17:38.857Z,1015.46
2019-03-25T01:18:38.875Z,1015.47
2019-03-25T01:19:38.848Z,1015.45
2019-03-25T01:20:38.819Z,1015.44
2019-03-25T01:21:38.814Z,1015.42
2019-03-25T01:22:38.799Z,1015.44
2019-03-25T01:23:38.785Z,1015.46
2019-03-25T01:24:38.787Z,1015.40
2019-03-25T01:25:38.764Z,1015.43
2019-03-25T01:26:38.749Z,1015.45
2019-03-25T01:27:38.757Z,1015.43
2019-03-25T01:28:38.747Z,1015.42
2019-03-25T01:29:38.748Z,1015.39
2019-03-25T01:30:38.705Z,1015.37
2019-03-25T01:31:38.699Z,1015.33
2019-03-25T01:32:38.690Z,1015.35
2019-03-25T01:33:38.689Z,1015.35
2019-03-25T01:34:38.693Z,1015.33
2019-03-25T01:35:38.655Z,1015.32
2019-03-25T01:36:38.640Z,1015.34
2019-03-25T01:37:38.631Z,1015.32
2019-03-25T01:38:38.627Z,1015.34
2019-03-25T01:39:38.620Z,1015.30
2019-03-25T01:40:38.609Z,1015.34
2019-03-25T01:41:38.585Z,1015.33
2019-03-25T01:42:38.575Z,1015.33
2019-03-25T01:43:38.567Z,1015.29
2019-03-25T01:44:38.591Z,1015.28
2019-03-25T01:45:38.559Z,1015.27
2019-03-25T01:46:38.540Z,1015.28
2019-03-25T01:47:38.521Z,1015.18
2019-03-25T01:48:38.511Z,1015.19
2019-03-25T01:49:38.511Z,1015.15
2019-03-25T01:50:38.494Z,1015.18
2019-03-25T01:51:38.515Z,1015.18
2019-03-25T01:53:29.622Z,1015.18
2019-03-25T01:53:38.451Z,1015.19
2019-03-25T01:54:38.462Z,1015.11
2019-03-25T01:55:38.441Z,1015.09
2019-03-25T01:56:38.420Z,1015.11
2019-03-25T01:57:38.409Z,1015.15
2019-03-25T01:58:38.401Z,1015.11
2019-03-25T01:59:38.409Z,1015.06
2019-03-25T02:00:38.392Z,1015.02
2019-03-25T02:01:38.372Z,1015.01
2019-03-25T02:02:38.367Z,1015.00
2019-03-25T02:03:38.348Z,1014.95
2019-03-25T02:04:38.359Z,1014.94
2019-03-25T02:05:38.326Z,1014.93
2019-03-25T02:06:38.314Z,1014.95
2019-03-25T02:07:38.310Z,1014.90
2019-03-25T02:08:38.351Z,1014.91
2019-03-25T02:09:38.297Z,1014.83
2019-03-25T02:10:38.294Z,1014.88
2019-03-25T02:11:38.262Z,1014.84
2019-03-25T02:12:38.241Z,1014.76
2019-03-25T02:13:38.233Z,1014.78
2019-03-25T02:14:38.243Z,1014.75
2019-03-25T02:15:38.233Z,1014.73
2019-03-25T02:16:38.205Z,1014.72
2019-03-25T02:17:38.192Z,1014.72
2019-03-25T02:18:38.177Z,1014.72
2019-03-25T02:19:38.180Z,1014.69
2019-03-25T02:20:38.163Z,1014.64
2019-03-25T02:21:38.148Z,1014.69
2019-03-25T02:22:38.168Z,1014.65
2019-03-25T02:23:38.133Z,1014.65
2019-03-25T02:24:38.111Z,1014.53
2019-03-25T02:25:38.106Z,1014.54
2019-03-25T02:26:38.086Z,1014.56
2019-03-25T02:27:38.083Z,1014.52
2019-03-25T02:28:38.094Z,1014.50
2019-03-25T02:29:38.057Z,1014.51
2019-03-25T02:30:38.067Z,1014.53
2019-03-25T02:31:38.030Z,1014.47
2019-03-25T02:32:38.022Z,1014.47
2019-03-25T02:33:38.030Z,1014.47
2019-03-25T02:34:38.000Z,1014.47
2019-03-25T02:35:38.026Z,1014.50
2019-03-25T02:36:37.982Z,1014.48
2019-03-25T02:37:37.976Z,1014.46
2019-03-25T02:38:37.958Z,1014.39
2019-03-25T02:39:37.967Z,1014.39
2019-03-25T02:40:37.948Z,1014.36
2019-03-25T02:41:37.929Z,1014.35
2019-03-25T02:42:37.915Z,1014.31
2019-03-25T02:43:37.913Z,1014.33
2019-03-25T02:44:37.888Z,1014.32
2019-03-25T02:45:37.894Z,1014.30
2019-03-25T02:46:37.870Z,1014.28
2019-03-25T02:47:37.851Z,1014.29
2019-03-25T02:48:37.883Z,1014.25
2019-03-25T02:49:37.840Z,1014.28
2019-03-25T02:50:37.835Z,1014.23
2019-03-25T02:51:37.829Z,1014.24
2019-03-25T02:52:37.806Z,1014.27
2019-03-25T02:53:37.791Z,1014.24
2019-03-25T02:54:37.777Z,1014.22
2019-03-25T02:55:41.872Z,1014.20
2019-03-25T02:56:37.757Z,1014.21
2019-03-25T02:57:37.743Z,1014.18
2019-03-25T02:58:37.745Z,1014.14
2019-03-25T02:59:37.721Z,1014.14
2019-03-25T03:00:37.769Z,1014.15
2019-03-25T03:01:37.710Z,1014.12
2019-03-25T03:02:37.691Z,1014.13
2019-03-25T03:03:37.675Z,1014.16
2019-03-25T03:04:37.710Z,1014.06
2019-03-25T03:05:37.726Z,1014.08
2019-03-25T03:06:37.713Z,1014.10
2019-03-25T03:07:37.664Z,1014.07
2019-03-25T03:08:37.621Z,1014.09
2019-03-25T03:09:37.622Z,1014.07
2019-03-25T03:10:37.621Z,1014.06
2019-03-25T03:11:37.587Z,1014.03
2019-03-25T03:12:37.578Z,1014.05
2019-03-25T03:13:37.565Z,1014.03
2019-03-25T03:14:37.572Z,1013.99
2019-03-25T03:15:37.565Z,1013.97
2019-03-25T03:16:37.543Z,1013.94
2019-03-25T03:17:37.519Z,1013.96
2019-03-25T03:18:37.507Z,1013.92
2019-03-25T03:19:37.499Z,1013.89
2019-03-25T03:20:37.513Z,1013.86
2019-03-25T03:21:37.483Z,1013.84
2019-03-25T03:22:37.470Z,1013.84
2019-03-25T03:23:37.464Z,1013.82
2019-03-25T03:24:37.434Z,1013.84
2019-03-25T03:25:37.461Z,1013.80
2019-03-25T03:26:37.414Z,1013.75
2019-03-25T03:27:37.405Z,1013.77
2019-03-25T03:28:37.397Z,1013.78
2019-03-25T03:29:37.381Z,1013.73
2019-03-25T03:30:37.394Z,1013.74
2019-03-25T03:31:37.376Z,1013.68
2019-03-25T03:32:37.388Z,1013.69
2019-03-25T03:33:37.340Z,1013.68
2019-03-25T03:34:37.344Z,1013.67
2019-03-25T03:35:37.344Z,1013.70
2019-03-25T03:36:37.311Z,1013.72
2019-03-25T03:37:37.329Z,1013.64
2019-03-25T03:38:37.356Z,1013.63
2019-03-25T03:39:37.272Z,1013.62
2019-03-25T03:40:37.271Z,1013.61
2019-03-25T03:41:37.247Z,1013.62
2019-03-25T03:42:37.239Z,1013.57
2019-03-25T03:43:37.225Z,1013.57
2019-03-25T03:44:37.212Z,1013.58
2019-03-25T03:45:37.219Z,1013.52
2019-03-25T03:46:37.196Z,1013.52
2019-03-25T03:47:37.226Z,1013.51
2019-03-25T03:48:37.197Z,1013.48
2019-03-25T03:49:37.177Z,1013.46
2019-03-25T03:50:41.421Z,1013.46
2019-03-25T03:51:37.146Z,1013.39
2019-03-25T03:52:37.124Z,1013.37
2019-03-25T03:53:37.114Z,1013.32
2019-03-25T03:54:37.100Z,1013.36
2019-03-25T03:55:37.123Z,1013.32
2019-03-25T03:56:37.081Z,1013.29
2019-03-25T03:57:37.068Z,1013.39
2019-03-25T03:58:37.057Z,1013.33
2019-03-25T03:59:37.049Z,1013.33
2019-03-25T04:00:37.046Z,1013.33
2019-03-25T04:01:37.041Z,1013.30
2019-03-25T04:02:37.010Z,1013.20
2019-03-25T04:03:36.995Z,1013.27
2019-03-25T04:04:36.992Z,1013.28
2019-03-25T04:05:36.979Z,1013.21
2019-03-25T04:06:36.974Z,1013.22
2019-03-25T04:07:36.960Z,1013.26
2019-03-25T04:08:36.963Z,1013.33
2019-03-25T04:09:36.941Z,1013.29
2019-03-25T04:10:36.926Z,1013.34
2019-03-25T04:11:36.919Z,1013.26
2019-03-25T04:12:36.908Z,1013.23
2019-03-25T04:13:36.898Z,1013.25
2019-03-25T04:14:36.875Z,1013.24
2019-03-25T04:15:36.879Z,1013.20
2019-03-25T04:16:36.860Z,1013.21
2019-03-25T04:17:36.845Z,1013.23
2019-03-25T04:18:36.855Z,1013.21
2019-03-25T04:19:36.829Z,1013.21
2019-03-25T04:20:36.807Z,1013.22
2019-03-25T04:21:36.813Z,1013.24
2019-03-25T04:22:36.784Z,1013.25
2019-03-25T04:23:36.780Z,1013.23
2019-03-25T04:24:36.778Z,1013.23
2019-03-25T04:25:36.764Z,1013.27
2019-03-25T04:26:36.759Z,1013.24
2019-03-25T04:27:36.738Z,1013.29
2019-03-25T04:28:36.717Z,1013.25
2019-03-25T04:29:36.719Z,1013.27
2019-03-25T04:30:36.698Z,1013.29
2019-03-25T04:31:36.705Z,1013.26
2019-03-25T04:32:36.682Z,1013.23
2019-03-25T04:33:36.665Z,1013.25
2019-03-25T04:34:36.662Z,1013.18
2019-03-25T04:35:36.640Z,1013.17
2019-03-25T04:36:36.651Z,1013.24
2019-03-25T04:37:36.642Z,1013.19
2019-03-25T04:38:36.623Z,1013.17
2019-03-25T04:39:36.605Z,1013.09
2019-03-25T04:40:36.601Z,1013.07
2019-03-25T04:41:36.589Z,1013.08
2019-03-25T04:42:36.562Z,1013.16
2019-03-25T04:43:36.548Z,1013.15
2019-03-25T04:44:36.541Z,1013.07
2019-03-25T04:45:36.542Z,1013.00
2019-03-25T04:46:36.551Z,1013.02
2019-03-25T04:47:36.524Z,1012.96
2019-03-25T04:48:36.492Z,1012.98
2019-03-25T04:49:36.482Z,1012.96
2019-03-25T04:50:36.478Z,1012.99
2019-03-25T04:51:36.511Z,1012.99
2019-03-25T04:52:36.451Z,1012.99
2019-03-25T04:53:36.436Z,1013.02
2019-03-25T04:54:36.427Z,1013.07
2019-03-25T04:55:36.415Z,1013.03
2019-03-25T04:56:40.007Z,1013.09
2019-03-25T04:57:36.395Z,1013.06
2019-03-25T04:58:36.378Z,1013.16
2019-03-25T04:59:36.382Z,1012.99
2019-03-25T05:00:36.363Z,1013.17
2019-03-25T05:01:36.364Z,1013.14
2019-03-25T05:02:36.352Z,1013.18
2019-03-25T05:03:36.347Z,1013.13
2019-03-25T05:04:36.318Z,1013.16
2019-03-25T05:05:36.465Z,1013.14
2019-03-25T05:06:36.310Z,1013.12
2019-03-25T05:07:36.284Z,1013.12
2019-03-25T05:08:36.277Z,1013.09
2019-03-25T05:09:36.279Z,1013.10
2019-03-25T05:10:36.246Z,1013.12
2019-03-25T05:11:36.258Z,1013.10
2019-03-25T05:12:36.254Z,1013.12
2019-03-25T05:13:36.224Z,1013.09
2019-03-25T05:14:36.204Z,1012.98
2019-03-25T05:15:36.202Z,1013.03
2019-03-25T05:16:36.215Z,1013.06
2019-03-25T05:17:36.184Z,1013.08
2019-03-25T05:18:36.235Z,1013.04
2019-03-25T05:19:36.150Z,1013.05
2019-03-25T05:20:36.135Z,1013.03
2019-03-25T05:21:36.148Z,1013.01
2019-03-25T05:22:36.115Z,1013.04
2019-03-25T05:23:36.114Z,1012.95
2019-03-25T05:24:36.103Z,1013.12
2019-03-25T05:25:36.087Z,1013.07
2019-03-25T05:26:36.070Z,1013.11
2019-03-25T05:27:36.071Z,1013.06
2019-03-25T05:28:36.047Z,1013.04
2019-03-25T05:29:36.036Z,1013.08
2019-03-25T05:30:36.023Z,1013.10
2019-03-25T05:31:36.015Z,1013.16
2019-03-25T05:32:36.022Z,1013.12
2019-03-25T05:33:35.995Z,1013.19
2019-03-25T05:34:35.997Z,1013.13
2019-03-25T05:35:35.992Z,1013.16
2019-03-25T05:36:35.988Z,1013.17
2019-03-25T05:37:35.984Z,1013.19
2019-03-25T05:38:35.946Z,1013.20
2019-03-25T05:39:35.930Z,1013.25
2019-03-25T05:40:35.926Z,1013.21
2019-03-25T05:41:35.924Z,1013.16
2019-03-25T05:42:35.924Z,1013.21
2019-03-25T05:43:35.889Z,1013.18
2019-03-25T05:44:35.893Z,1013.19
2019-03-25T05:45:35.870Z,1013.20
2019-03-25T05:46:35.855Z,1013.24
2019-03-25T05:47:35.854Z,1013.26
2019-03-25T05:48:35.842Z,1013.19
2019-03-25T05:49:35.822Z,1013.22
2019-03-25T05:50:35.812Z,1013.32
2019-03-25T05:51:35.796Z,1013.32
2019-03-25T05:52:35.804Z,1013.40
2019-03-25T05:53:35.788Z,1013.46
2019-03-25T05:54:35.814Z,1013.51
2019-03-25T05:55:35.754Z,1013.61
2019-03-25T05:56:35.763Z,1013.71
2019-03-25T05:57:35.744Z,1013.58
2019-03-25T05:58:35.726Z,1013.67
2019-03-25T05:59:35.718Z,1013.62
2019-03-25T06:00:35.710Z,1013.64
2019-03-25T06:01:35.702Z,1013.59
2019-03-25T06:02:35.697Z,1013.55
2019-03-25T06:03:35.666Z,1013.54
2019-03-25T06:04:35.685Z,1013.53
2019-03-25T06:05:35.664Z,1013.53
2019-03-25T06:06:35.637Z,1013.52
2019-03-25T06:07:35.645Z,1013.57
2019-03-25T06:08:35.629Z,1013.60
2019-03-25T06:09:35.605Z,1013.56
2019-03-25T06:10:35.597Z,1013.60
2019-03-25T06:11:35.601Z,1013.56
2019-03-25T06:12:35.583Z,1013.64
2019-03-25T06:13:35.565Z,1013.61
2019-03-25T06:14:35.552Z,1013.64
2019-03-25T06:15:35.552Z,1013.63
2019-03-25T06:16:35.526Z,1013.61
2019-03-25T06:17:35.535Z,1013.59
2019-03-25T06:18:35.519Z,1013.54
2019-03-25T06:19:35.493Z,1013.63
2019-03-25T06:20:35.480Z,1013.70
2019-03-25T06:21:35.481Z,1013.66
2019-03-25T06:22:35.482Z,1013.71
2019-03-25T06:23:35.482Z,1013.66
2019-03-25T06:24:35.438Z,1013.68
2019-03-25T06:25:35.436Z,1013.66
2019-03-25T06:26:35.412Z,1013.67
2019-03-25T06:27:35.434Z,1013.71
2019-03-25T06:28:35.398Z,1013.67
2019-03-25T06:29:35.390Z,1013.70
2019-03-25T06:30:35.375Z,1013.65
2019-03-25T06:31:35.361Z,1013.61
2019-03-25T06:32:35.366Z,1013.65
2019-03-25T06:33:35.363Z,1013.73
2019-03-25T06:34:35.341Z,1013.73
2019-03-25T06:35:35.325Z,1013.71
2019-03-25T06:36:35.328Z,1013.71
2019-03-25T06:37:35.314Z,1013.76
2019-03-25T06:38:35.289Z,1013.77
2019-03-25T06:39:35.289Z,1013.79
2019-03-25T06:40:35.276Z,1013.84
2019-03-25T06:41:35.286Z,1013.88
2019-03-25T06:42:35.259Z,1013.87
2019-03-25T06:43:35.243Z,1013.91
2019-03-25T06:44:35.417Z,1013.91
2019-03-25T06:45:35.221Z,1013.89
2019-03-25T06:46:35.206Z,1013.92
2019-03-25T06:47:35.213Z,1013.89
2019-03-25T06:48:35.180Z,1014.00
2019-03-25T06:49:35.179Z,1013.95
2019-03-25T06:50:35.155Z,1013.95
2019-03-25T06:51:35.162Z,1014.05
2019-03-25T06:52:35.156Z,1014.07
2019-03-25T06:53:35.136Z,1014.08
2019-03-25T06:54:35.109Z,1014.10
2019-03-25T06:55:35.128Z,1014.13
2019-03-25T06:56:35.089Z,1014.12
2019-03-25T06:57:35.110Z,1014.16
2019-03-25T06:58:35.084Z,1014.22
2019-03-25T06:59:35.055Z,1014.11
2019-03-25T07:00:35.045Z,1014.13
2019-03-25T07:01:35.027Z,1014.17
2019-03-25T07:02:35.030Z,1014.12
2019-03-25T07:03:35.028Z,1014.15
2019-03-25T07:04:35.011Z,1014.07
2019-03-25T07:05:34.994Z,1014.23
2019-03-25T07:06:34.976Z,1014.08
2019-03-25T07:07:34.966Z,1014.15
2019-03-25T07:08:35.003Z,1014.14
2019-03-25T07:09:34.964Z,1014.13
2019-03-25T07:10:34.949Z,1014.15
2019-03-25T07:11:34.925Z,1014.20
2019-03-25T07:12:34.917Z,1014.25
2019-03-25T07:13:34.915Z,1014.30
2019-03-25T07:14:34.888Z,1014.29
2019-03-25T07:15:34.917Z,1014.31
2019-03-25T07:16:34.878Z,1014.31
2019-03-25T07:17:34.853Z,1014.33
2019-03-25T07:18:34.900Z,1014.34
2019-03-25T07:19:34.838Z,1014.32
2019-03-25T07:20:34.834Z,1014.36
2019-03-25T07:21:34.835Z,1014.36
2019-03-25T07:22:34.873Z,1014.32
2019-03-25T07:23:34.819Z,1014.30
2019-03-25T07:24:34.804Z,1014.35
2019-03-25T07:25:34.778Z,1014.36
2019-03-25T07:26:34.764Z,1014.37
2019-03-25T07:27:37.175Z,1014.38
2019-03-25T07:28:34.754Z,1014.43
2019-03-25T07:29:34.740Z,1014.46
2019-03-25T07:30:34.728Z,1014.40
2019-03-25T07:31:34.707Z,1014.42
2019-03-25T07:32:34.704Z,1014.43
2019-03-25T07:33:34.697Z,1014.43
2019-03-25T07:34:34.685Z,1014.43
2019-03-25T07:35:34.690Z,1014.41
2019-03-25T07:36:34.651Z,1014.49
2019-03-25T07:37:34.661Z,1014.63
2019-03-25T07:38:34.682Z,1014.46
2019-03-25T07:39:34.650Z,1014.41
2019-03-25T07:40:34.614Z,1014.48
2019-03-25T07:41:34.603Z,1014.52
2019-03-25T07:42:34.587Z,1014.56
2019-03-25T07:43:34.606Z,1014.49
2019-03-25T07:44:34.568Z,1014.48
2019-03-25T07:45:35.623Z,1014.59
2019-03-25T07:46:34.534Z,1014.57
2019-03-25T07:47:34.530Z,1014.51
2019-03-25T07:48:34.556Z,1014.51
2019-03-25T07:49:34.515Z,1014.56
2019-03-25T07:50:34.494Z,1014.48
2019-03-25T07:51:34.484Z,1014.46
2019-03-25T07:52:34.468Z,1014.44
2019-03-25T07:53:34.487Z,1014.47
2019-03-25T07:54:34.515Z,1014.43
2019-03-25T07:55:34.443Z,1014.37
2019-03-25T07:56:34.465Z,1014.32
2019-03-25T07:57:34.443Z,1014.31
2019-03-25T07:58:34.421Z,1014.35
2019-03-25T07:59:34.427Z,1014.34
2019-03-25T08:00:34.385Z,1014.31
2019-03-25T08:01:34.430Z,1014.34
2019-03-25T08:02:34.371Z,1014.37
2019-03-25T08:03:34.379Z,1014.59
2019-03-25T08:04:34.367Z,1014.51
2019-03-25T08:05:34.335Z,1014.35
2019-03-25T08:06:34.395Z,1014.37
2019-03-25T08:07:34.334Z,1014.40
2019-03-25T08:08:34.320Z,1014.35
2019-03-25T08:09:34.290Z,1014.40
2019-03-25T08:10:34.331Z,1014.40
2019-03-25T08:11:34.288Z,1014.42
2019-03-25T08:12:34.269Z,1014.42
2019-03-25T08:13:34.266Z,1014.48
2019-03-25T08:14:34.243Z,1014.41
2019-03-25T08:15:34.223Z,1014.42
2019-03-25T08:16:34.204Z,1014.49
2019-03-25T08:17:34.195Z,1014.42
2019-03-25T08:18:34.203Z,1014.44
2019-03-25T08:19:34.209Z,1014.49
2019-03-25T08:20:34.179Z,1014.40
2019-03-25T08:21:34.159Z,1014.42
2019-03-25T08:22:34.139Z,1014.39
2019-03-25T08:23:34.148Z,1014.39
2019-03-25T08:24:34.138Z,1014.41
2019-03-25T08:25:34.110Z,1014.42
2019-03-25T08:26:34.089Z,1014.37
2019-03-25T08:27:34.096Z,1014.38
2019-03-25T08:28:34.077Z,1014.43
2019-03-25T08:29:34.148Z,1014.45
2019-03-25T08:30:34.052Z,1014.53
2019-03-25T08:31:34.045Z,1014.60
2019-03-25T08:32:34.031Z,1014.51
2019-03-25T08:33:34.027Z,1014.42
2019-03-25T08:34:34.050Z,1014.47
2019-03-25T08:35:34.011Z,1014.42
2019-03-25T08:36:33.983Z,1014.48
2019-03-25T08:37:33.971Z,1014.63
2019-03-25T08:38:33.972Z,1014.54
2019-03-25T08:39:33.959Z,1014.52
2019-03-25T08:40:34.002Z,1014.54
2019-03-25T08:41:33.941Z,1014.51
2019-03-25T08:42:33.909Z,1014.43
2019-03-25T08:43:33.912Z,1014.55
2019-03-25T08:44:33.905Z,1014.45
2019-03-25T08:45:33.882Z,1014.45
2019-03-25T08:46:33.884Z,1014.50
2019-03-25T08:47:33.880Z,1014.51
2019-03-25T08:48:33.856Z,1014.55
2019-03-25T08:49:33.852Z,1014.55
2019-03-25T08:50:33.849Z,1014.53
2019-03-25T08:51:33.835Z,1014.51
2019-03-25T08:52:33.812Z,1014.60
2019-03-25T08:53:33.805Z,1014.58
2019-03-25T08:54:38.008Z,1014.59
2019-03-25T08:55:33.786Z,1014.61
2019-03-25T08:56:33.896Z,1014.60
2019-03-25T08:57:33.780Z,1014.56
2019-03-25T08:58:33.785Z,1014.55
2019-03-25T08:59:33.742Z,1014.57
2019-03-25T09:00:33.724Z,1014.59
2019-03-25T09:01:33.712Z,1014.56
2019-03-25T09:02:33.686Z,1014.62
2019-03-25T09:03:33.710Z,1014.56
2019-03-25T09:04:33.688Z,1014.62
2019-03-25T09:05:33.842Z,1014.58
2019-03-25T09:06:33.709Z,1014.60
2019-03-25T09:07:33.715Z,1014.62
2019-03-25T09:08:33.636Z,1014.61
2019-03-25T09:09:33.654Z,1014.64
2019-03-25T09:10:33.634Z,1014.55
2019-03-25T09:11:33.611Z,1014.63
2019-03-25T09:12:33.587Z,1014.65
2019-03-25T09:13:33.580Z,1014.75
2019-03-25T09:14:33.589Z,1014.54
2019-03-25T09:15:33.561Z,1014.65
2019-03-25T09:16:33.550Z,1014.70
2019-03-25T09:17:33.545Z,1014.65
2019-03-25T09:18:33.594Z,1014.72
2019-03-25T09:19:36.650Z,1014.65
2019-03-25T09:20:33.545Z,1014.66
2019-03-25T09:21:35.160Z,1014.61
2019-03-25T09:22:33.554Z,1014.54
2019-03-25T09:23:33.498Z,1014.61
2019-03-25T09:24:33.511Z,1014.64
2019-03-25T09:25:33.496Z,1014.57
2019-03-25T09:26:33.513Z,1014.63
2019-03-25T09:27:33.537Z,1014.66
2019-03-25T09:28:33.466Z,1014.71
2019-03-25T09:29:33.463Z,1014.86
2019-03-25T09:30:33.435Z,1014.61
2019-03-25T09:31:36.898Z,1014.62
2019-03-25T09:32:33.438Z,1014.68
2019-03-25T09:33:33.363Z,1014.55
2019-03-25T09:34:33.395Z,1014.64
2019-03-25T09:35:33.347Z,1014.56
2019-03-25T09:36:33.325Z,1014.57
2019-03-25T09:37:33.394Z,1014.51
2019-03-25T09:38:33.300Z,1014.59
2019-03-25T09:39:33.410Z,1014.60
2019-03-25T09:40:33.289Z,1014.62
2019-03-25T09:41:33.270Z,1014.46
2019-03-25T09:42:33.306Z,1014.54
2019-03-25T09:43:33.313Z,1014.51
2019-03-25T09:44:33.253Z,1014.50
2019-03-25T09:45:33.283Z,1014.55
2019-03-25T09:46:33.238Z,1014.49
2019-03-25T09:47:33.225Z,1014.51
2019-03-25T09:48:33.210Z,1014.51
2019-03-25T09:49:33.197Z,1014.48
2019-03-25T09:50:33.190Z,1014.46
2019-03-25T09:51:33.171Z,1014.47
2019-03-25T09:52:38.369Z,1014.53
2019-03-25T09:53:33.133Z,1014.41
2019-03-25T09:54:33.137Z,1014.50
2019-03-25T09:55:33.111Z,1014.32
2019-03-25T09:56:33.126Z,1014.43
2019-03-25T09:57:33.132Z,1014.38
2019-03-25T09:58:36.449Z,1014.33
2019-03-25T09:59:33.080Z,1014.36
2019-03-25T10:00:35.221Z,1014.38
2019-03-25T10:01:33.150Z,1014.67
2019-03-25T10:02:33.052Z,1014.51
2019-03-25T10:03:33.127Z,1014.37
2019-03-25T10:04:33.019Z,1014.44
2019-03-25T10:05:33.034Z,1014.60
2019-03-25T10:06:32.992Z,1014.44
2019-03-25T10:07:33.003Z,1014.53
2019-03-25T10:08:32.980Z,1014.35
2019-03-25T10:09:32.966Z,1014.35
2019-03-25T10:10:32.987Z,1014.38
2019-03-25T10:11:32.994Z,1014.25
2019-03-25T10:12:32.951Z,1014.39
2019-03-25T10:13:33.042Z,1014.57
2019-03-25T10:14:32.911Z,1014.47
2019-03-25T10:15:32.922Z,1014.40
2019-03-25T10:16:32.885Z,1014.50
2019-03-25T10:17:32.866Z,1014.63
2019-03-25T10:18:32.861Z,1014.46
2019-03-25T10:19:32.871Z,1014.59
2019-03-25T10:20:32.855Z,1014.39
2019-03-25T10:21:32.827Z,1014.44
2019-03-25T10:22:32.845Z,1014.43
2019-03-25T10:23:32.802Z,1014.39
2019-03-25T10:24:32.820Z,1014.45
2019-03-25T10:25:32.800Z,1014.57
2019-03-25T10:26:32.806Z,1014.45
2019-03-25T10:27:32.771Z,1014.47
2019-03-25T10:28:32.804Z,1014.33
2019-03-25T10:29:32.737Z,1014.44
2019-03-25T10:30:32.757Z,1014.46
2019-03-25T10:31:32.773Z,1014.56
2019-03-25T10:32:32.704Z,1014.72
2019-03-25T10:33:32.721Z,1014.75
2019-03-25T10:34:32.683Z,1014.56
2019-03-25T10:35:32.734Z,1014.48
2019-03-25T10:36:32.735Z,1014.51
2019-03-25T10:37:32.655Z,1014.62
2019-03-25T10:38:32.646Z,1014.61
2019-03-25T10:39:32.660Z,1014.53
2019-03-25T10:40:32.633Z,1014.53
2019-03-25T10:41:32.618Z,1014.51
2019-03-25T10:42:32.607Z,1014.53
2019-03-25T10:43:35.975Z,1014.57
2019-03-25T10:44:32.582Z,1014.45
2019-03-25T10:45:32.584Z,1014.51
2019-03-25T10:46:32.561Z,1014.39
2019-03-25T10:47:32.561Z,1014.49
2019-03-25T10:48:32.580Z,1014.53
2019-03-25T10:49:32.540Z,1014.59
2019-03-25T10:50:32.573Z,1014.45
2019-03-25T10:51:32.513Z,1014.51
2019-03-25T10:52:32.516Z,1014.59
2019-03-25T10:53:32.470Z,1014.59
2019-03-25T10:54:32.579Z,1014.51
2019-03-25T10:55:32.497Z,1014.52
2019-03-25T10:56:32.475Z,1014.50
2019-03-25T10:57:32.436Z,1014.59
2019-03-25T10:58:32.439Z,1014.81
2019-03-25T10:59:32.409Z,1014.76
2019-03-25T11:00:32.417Z,1015.19
2019-03-25T11:01:32.667Z,1015.03
2019-03-25T11:02:32.471Z,1014.98
2019-03-25T11:03:32.436Z,1014.88
2019-03-25T11:04:32.350Z,1014.87
2019-03-25T11:05:32.361Z,1014.85
2019-03-25T11:06:32.347Z,1014.80
2019-03-25T11:07:32.387Z,1014.85
2019-03-25T11:08:32.311Z,1014.75
2019-03-25T11:09:32.365Z,1014.77
2019-03-25T11:10:32.337Z,1014.76
2019-03-25T11:11:32.285Z,1014.79
2019-03-25T11:12:32.271Z,1014.78
2019-03-25T11:13:32.254Z,1014.77
2019-03-25T11:14:32.937Z,1014.75
2019-03-25T11:15:32.250Z,1014.67
2019-03-25T11:16:32.223Z,1014.80
2019-03-25T11:17:32.221Z,1014.87
2019-03-25T11:18:32.203Z,1014.79
2019-03-25T11:19:32.197Z,1014.88
2019-03-25T11:20:32.227Z,1014.92
2019-03-25T11:21:32.173Z,1014.89
2019-03-25T11:22:32.164Z,1014.99
2019-03-25T11:23:32.164Z,1015.02
2019-03-25T11:24:32.133Z,1015.11
2019-03-25T11:25:32.133Z,1015.09
2019-03-25T11:26:32.105Z,1015.02
2019-03-25T11:27:32.100Z,1015.03
2019-03-25T11:28:32.091Z,1015.08
2019-03-25T11:29:32.076Z,1015.10
2019-03-25T11:30:32.063Z,1015.11
2019-03-25T11:31:32.084Z,1015.12
2019-03-25T11:32:32.054Z,1015.05
2019-03-25T11:33:32.072Z,1015.02
2019-03-25T11:34:32.056Z,1015.02
2019-03-25T11:35:32.015Z,1015.05
2019-03-25T11:36:32.021Z,1014.94
2019-03-25T11:37:31.996Z,1014.96
2019-03-25T11:38:31.984Z,1015.00
2019-03-25T11:39:31.964Z,1015.04
2019-03-25T11:40:31.972Z,1015.01
2019-03-25T11:41:31.972Z,1014.98
2019-03-25T11:42:31.963Z,1015.03
2019-03-25T11:43:31.927Z,1014.92
2019-03-25T11:44:31.974Z,1014.98
2019-03-25T11:45:31.970Z,1015.01
2019-03-25T11:46:31.904Z,1014.99
2019-03-25T11:47:31.889Z,1015.02
2019-03-25T11:48:31.861Z,1015.07
2019-03-25T11:49:31.855Z,1014.97
2019-03-25T11:50:31.855Z,1015.07
2019-03-25T11:51:31.850Z,1015.04
2019-03-25T11:52:31.826Z,1015.05
2019-03-25T11:53:31.824Z,1015.05
2019-03-25T11:54:31.800Z,1014.99
2019-03-25T11:55:31.786Z,1015.03
2019-03-25T11:56:31.841Z,1015.09
2019-03-25T11:57:31.764Z,1015.01
2019-03-25T11:58:31.754Z,1014.99
2019-03-25T11:59:31.759Z,1015.02
2019-03-25T12:00:31.749Z,1015.01
2019-03-25T12:01:31.735Z,1014.91
2019-03-25T12:02:31.749Z,1014.96
2019-03-25T12:03:31.722Z,1014.92
2019-03-25T12:04:31.709Z,1015.02
2019-03-25T12:05:31.690Z,1015.01